sensor_id;sensor_type;location;lat;lon;timestamp;temperature;humidity
53599;DHT22;39485;45.702;11.364;2022-11-11T00:01:02;10.80;99.90
53599;DHT22;39485;45.702;11.364;2022-11-11T00:03:28;10.80;99.90
53599;DHT22;39485;45.702;11.364;2022-11-11T00:05:58;10.80;99.90
53599;DHT22;39485;45.702;11.364;2022-11-11T00:08:24;10.80;99.90
53599;DHT22;39485;45.702;11.364;2022-11-11T00:10:50;10.80;99.90
53599;DHT22;39485;45.702;11.364;2022-11-11T00:13:19;10.80;99.90
53599;DHT22;39485;45.702;11.364;2022-11-11T00:15:45;10.80;99.90
53599;DHT22;39485;45.702;11.364;2022-11-11T00:18:11;10.80;99.90
53599;DHT22;39485;45.702;11.364;2022-11-11T00:20:57;10.80;99.90
53599;DHT22;39485;45.702;11.364;2022-11-11T00:23:42;10.80;99.90
53599;DHT22;39485;45.702;11.364;2022-11-11T00:26:27;10.70;99.90
53599;DHT22;39485;45.702;11.364;2022-11-11T00:28:53;10.70;99.90
53599;DHT22;39485;45.702;11.364;2022-11-11T00:31:18;10.70;99.90
53599;DHT22;39485;45.702;11.364;2022-11-11T00:33:44;10.70;99.90
53599;DHT22;39485;45.702;11.364;2022-11-11T00:36:10;10.70;99.90
53599;DHT22;39485;45.702;11.364;2022-11-11T00:38:35;10.70;99.90
53599;DHT22;39485;45.702;11.364;2022-11-11T00:41:18;10.70;99.90
53599;DHT22;39485;45.702;11.364;2022-11-11T00:43:45;10.70;99.90
53599;DHT22;39485;45.702;11.364;2022-11-11T00:46:12;10.70;99.90
53599;DHT22;39485;45.702;11.364;2022-11-11T00:48:56;10.70;99.90
53599;DHT22;39485;45.702;11.364;2022-11-11T00:51:41;10.70;99.90
53599;DHT22;39485;45.702;11.364;2022-11-11T00:54:10;10.70;99.90
53599;DHT22;39485;45.702;11.364;2022-11-11T00:56:36;10.70;99.90
53599;DHT22;39485;45.702;11.364;2022-11-11T00:59:03;10.60;99.90
53599;DHT22;39485;45.702;11.364;2022-11-11T01:01:29;10.60;99.90
53599;DHT22;39485;45.702;11.364;2022-11-11T01:03:55;10.60;99.90
53599;DHT22;39485;45.702;11.364;2022-11-11T01:06:25;10.60;99.90
53599;DHT22;39485;45.702;11.364;2022-11-11T01:08:50;10.60;99.90
53599;DHT22;39485;45.702;11.364;2022-11-11T01:11:19;10.60;99.90
53599;DHT22;39485;45.702;11.364;2022-11-11T01:13:45;10.60;99.90
53599;DHT22;39485;45.702;11.364;2022-11-11T01:16:13;10.60;99.90
53599;DHT22;39485;45.702;11.364;2022-11-11T01:18:40;10.60;99.90
53599;DHT22;39485;45.702;11.364;2022-11-11T01:21:20;10.50;99.90
53599;DHT22;39485;45.702;11.364;2022-11-11T01:23:47;10.60;99.90
53599;DHT22;39485;45.702;11.364;2022-11-11T01:28:42;10.50;99.90
53599;DHT22;39485;45.702;11.364;2022-11-11T01:31:11;10.50;99.90
53599;DHT22;39485;45.702;11.364;2022-11-11T01:33:37;10.40;99.90
53599;DHT22;39485;45.702;11.364;2022-11-11T01:36:09;10.40;99.90
53599;DHT22;39485;45.702;11.364;2022-11-11T01:38:35;10.40;99.90
53599;DHT22;39485;45.702;11.364;2022-11-11T01:41:07;10.40;99.90
53599;DHT22;39485;45.702;11.364;2022-11-11T01:43:54;10.30;99.90
53599;DHT22;39485;45.702;11.364;2022-11-11T01:49:14;10.20;99.90
53599;DHT22;39485;45.702;11.364;2022-11-11T01:54:43;10.20;99.90
53599;DHT22;39485;45.702;11.364;2022-11-11T02:00:05;10.20;99.90
53599;DHT22;39485;45.702;11.364;2022-11-11T02:02:53;10.20;99.90
53599;DHT22;39485;45.702;11.364;2022-11-11T02:05:21;10.20;99.90
53599;DHT22;39485;45.702;11.364;2022-11-11T02:08:12;10.10;99.90
53599;DHT22;39485;45.702;11.364;2022-11-11T02:10:45;10.20;99.90
53599;DHT22;39485;45.702;11.364;2022-11-11T02:13:18;10.10;99.90
53599;DHT22;39485;45.702;11.364;2022-11-11T02:16:05;10.10;99.90
53599;DHT22;39485;45.702;11.364;2022-11-11T02:18:32;10.10;99.90
53599;DHT22;39485;45.702;11.364;2022-11-11T02:20:57;10.10;99.90
53599;DHT22;39485;45.702;11.364;2022-11-11T02:23:38;10.10;99.90
53599;DHT22;39485;45.702;11.364;2022-11-11T02:26:15;10.10;99.90
53599;DHT22;39485;45.702;11.364;2022-11-11T02:28:47;10.10;99.90
53599;DHT22;39485;45.702;11.364;2022-11-11T02:31:17;10.00;99.90
53599;DHT22;39485;45.702;11.364;2022-11-11T02:33:45;10.00;99.90
53599;DHT22;39485;45.702;11.364;2022-11-11T02:36:13;10.00;99.90
53599;DHT22;39485;45.702;11.364;2022-11-11T02:38:42;10.00;99.90
53599;DHT22;39485;45.702;11.364;2022-11-11T02:41:08;10.00;99.90
53599;DHT22;39485;45.702;11.364;2022-11-11T02:43:53;10.00;99.90
53599;DHT22;39485;45.702;11.364;2022-11-11T02:46:21;10.00;99.90
53599;DHT22;39485;45.702;11.364;2022-11-11T02:48:46;10.00;99.90
53599;DHT22;39485;45.702;11.364;2022-11-11T02:51:15;10.00;99.90
53599;DHT22;39485;45.702;11.364;2022-11-11T02:53:40;10.00;99.90
53599;DHT22;39485;45.702;11.364;2022-11-11T02:56:06;10.00;99.90
53599;DHT22;39485;45.702;11.364;2022-11-11T02:58:32;10.00;99.90
53599;DHT22;39485;45.702;11.364;2022-11-11T03:00:58;9.90;99.90
53599;DHT22;39485;45.702;11.364;2022-11-11T03:03:24;9.90;99.90
53599;DHT22;39485;45.702;11.364;2022-11-11T03:05:49;9.90;99.90
53599;DHT22;39485;45.702;11.364;2022-11-11T03:08:15;9.90;99.90
53599;DHT22;39485;45.702;11.364;2022-11-11T03:10:40;9.90;99.90
53599;DHT22;39485;45.702;11.364;2022-11-11T03:13:06;9.90;99.90
53599;DHT22;39485;45.702;11.364;2022-11-11T03:15:32;9.90;99.90
53599;DHT22;39485;45.702;11.364;2022-11-11T03:18:00;9.90;99.90
53599;DHT22;39485;45.702;11.364;2022-11-11T03:20:28;9.90;99.90
53599;DHT22;39485;45.702;11.364;2022-11-11T03:23:14;9.90;99.90
53599;DHT22;39485;45.702;11.364;2022-11-11T03:25:42;9.90;99.90
53599;DHT22;39485;45.702;11.364;2022-11-11T03:28:15;9.90;99.90
53599;DHT22;39485;45.702;11.364;2022-11-11T03:30:46;9.90;99.90
53599;DHT22;39485;45.702;11.364;2022-11-11T03:33:12;9.90;99.90
53599;DHT22;39485;45.702;11.364;2022-11-11T03:35:39;9.90;99.90
53599;DHT22;39485;45.702;11.364;2022-11-11T03:38:06;9.90;99.90
53599;DHT22;39485;45.702;11.364;2022-11-11T03:40:42;10.00;99.90
53599;DHT22;39485;45.702;11.364;2022-11-11T03:43:08;10.00;99.90
53599;DHT22;39485;45.702;11.364;2022-11-11T03:45:34;10.00;99.90
53599;DHT22;39485;45.702;11.364;2022-11-11T03:48:00;10.00;99.90
53599;DHT22;39485;45.702;11.364;2022-11-11T03:50:25;10.00;99.90
53599;DHT22;39485;45.702;11.364;2022-11-11T03:52:51;10.00;99.90
53599;DHT22;39485;45.702;11.364;2022-11-11T03:55:17;10.00;99.90
53599;DHT22;39485;45.702;11.364;2022-11-11T03:57:44;10.00;99.90
53599;DHT22;39485;45.702;11.364;2022-11-11T04:00:15;10.00;99.90
53599;DHT22;39485;45.702;11.364;2022-11-11T04:02:41;10.00;99.90
53599;DHT22;39485;45.702;11.364;2022-11-11T04:05:25;10.00;99.90
53599;DHT22;39485;45.702;11.364;2022-11-11T04:08:15;10.00;99.90
53599;DHT22;39485;45.702;11.364;2022-11-11T04:11:06;9.90;99.90
53599;DHT22;39485;45.702;11.364;2022-11-11T04:13:33;9.90;99.90
53599;DHT22;39485;45.702;11.364;2022-11-11T04:16:17;9.90;99.90
53599;DHT22;39485;45.702;11.364;2022-11-11T04:18:43;10.00;99.90
53599;DHT22;39485;45.702;11.364;2022-11-11T04:21:27;10.00;99.90
53599;DHT22;39485;45.702;11.364;2022-11-11T04:24:18;10.00;99.90
53599;DHT22;39485;45.702;11.364;2022-11-11T04:27:05;10.00;99.90
53599;DHT22;39485;45.702;11.364;2022-11-11T04:29:32;10.00;99.90
53599;DHT22;39485;45.702;11.364;2022-11-11T04:31:58;10.00;99.90
53599;DHT22;39485;45.702;11.364;2022-11-11T04:34:45;10.00;99.90
53599;DHT22;39485;45.702;11.364;2022-11-11T04:37:12;10.00;99.90
53599;DHT22;39485;45.702;11.364;2022-11-11T04:39:38;10.00;99.90
53599;DHT22;39485;45.702;11.364;2022-11-11T04:42:23;10.00;99.90
53599;DHT22;39485;45.702;11.364;2022-11-11T04:44:49;10.00;99.90
53599;DHT22;39485;45.702;11.364;2022-11-11T04:47:33;10.00;99.90
53599;DHT22;39485;45.702;11.364;2022-11-11T04:49:59;10.00;99.90
53599;DHT22;39485;45.702;11.364;2022-11-11T04:52:24;10.00;99.90
53599;DHT22;39485;45.702;11.364;2022-11-11T04:54:50;10.00;99.90
53599;DHT22;39485;45.702;11.364;2022-11-11T04:57:38;10.00;99.90
53599;DHT22;39485;45.702;11.364;2022-11-11T05:00:05;10.00;99.90
53599;DHT22;39485;45.702;11.364;2022-11-11T05:02:30;10.00;99.90
53599;DHT22;39485;45.702;11.364;2022-11-11T05:05:15;10.00;99.90
53599;DHT22;39485;45.702;11.364;2022-11-11T05:07:40;9.90;99.90
53599;DHT22;39485;45.702;11.364;2022-11-11T05:10:24;9.90;99.90
53599;DHT22;39485;45.702;11.364;2022-11-11T05:12:50;9.90;99.90
53599;DHT22;39485;45.702;11.364;2022-11-11T05:15:15;9.90;99.90
53599;DHT22;39485;45.702;11.364;2022-11-11T05:18:00;9.90;99.90
53599;DHT22;39485;45.702;11.364;2022-11-11T05:20:48;9.90;99.90
53599;DHT22;39485;45.702;11.364;2022-11-11T05:23:33;9.80;99.90
53599;DHT22;39485;45.702;11.364;2022-11-11T05:26:17;9.80;99.90
53599;DHT22;39485;45.702;11.364;2022-11-11T05:28:42;9.80;99.90
53599;DHT22;39485;45.702;11.364;2022-11-11T05:31:08;9.80;99.90
53599;DHT22;39485;45.702;11.364;2022-11-11T07:22:11;10.40;99.90
53599;DHT22;39485;45.702;11.364;2022-11-11T07:24:37;10.50;99.90
53599;DHT22;39485;45.702;11.364;2022-11-11T07:27:02;10.50;99.90
53599;DHT22;39485;45.702;11.364;2022-11-11T07:29:28;10.60;99.90
53599;DHT22;39485;45.702;11.364;2022-11-11T07:31:54;10.60;99.90
53599;DHT22;39485;45.702;11.364;2022-11-11T07:34:19;10.60;99.90
53599;DHT22;39485;45.702;11.364;2022-11-11T07:36:45;10.70;99.90
53599;DHT22;39485;45.702;11.364;2022-11-11T07:39:11;10.70;99.90
53599;DHT22;39485;45.702;11.364;2022-11-11T07:41:36;10.80;99.90
53599;DHT22;39485;45.702;11.364;2022-11-11T07:44:02;10.80;99.90
53599;DHT22;39485;45.702;11.364;2022-11-11T07:46:27;10.90;99.90
53599;DHT22;39485;45.702;11.364;2022-11-11T07:48:53;10.90;99.90
53599;DHT22;39485;45.702;11.364;2022-11-11T07:51:19;10.90;99.90
53599;DHT22;39485;45.702;11.364;2022-11-11T07:53:44;11.00;99.90
53599;DHT22;39485;45.702;11.364;2022-11-11T07:56:10;11.00;99.90
53599;DHT22;39485;45.702;11.364;2022-11-11T07:58:36;11.10;99.90
53599;DHT22;39485;45.702;11.364;2022-11-11T08:01:01;11.20;99.90
53599;DHT22;39485;45.702;11.364;2022-11-11T08:03:28;11.30;99.90
53599;DHT22;39485;45.702;11.364;2022-11-11T08:05:56;11.30;99.90
53599;DHT22;39485;45.702;11.364;2022-11-11T08:08:22;11.40;99.90
53599;DHT22;39485;45.702;11.364;2022-11-11T08:10:54;11.50;99.90
53599;DHT22;39485;45.702;11.364;2022-11-11T08:13:20;11.50;99.90
53599;DHT22;39485;45.702;11.364;2022-11-11T08:16:04;11.60;99.90
53599;DHT22;39485;45.702;11.364;2022-11-11T08:18:31;11.70;99.90
53599;DHT22;39485;45.702;11.364;2022-11-11T08:20:58;11.80;99.90
53599;DHT22;39485;45.702;11.364;2022-11-11T08:23:24;11.80;99.90
53599;DHT22;39485;45.702;11.364;2022-11-11T08:26:03;11.90;99.90
53599;DHT22;39485;45.702;11.364;2022-11-11T08:28:31;11.90;99.90
53599;DHT22;39485;45.702;11.364;2022-11-11T08:30:58;12.00;99.90
53599;DHT22;39485;45.702;11.364;2022-11-11T08:33:25;12.00;99.90
53599;DHT22;39485;45.702;11.364;2022-11-11T08:35:51;12.10;99.90
53599;DHT22;39485;45.702;11.364;2022-11-11T08:38:21;12.20;99.90
53599;DHT22;39485;45.702;11.364;2022-11-11T08:40:48;12.30;99.90
53599;DHT22;39485;45.702;11.364;2022-11-11T08:43:17;12.30;99.90
53599;DHT22;39485;45.702;11.364;2022-11-11T08:45:43;12.30;99.90
53599;DHT22;39485;45.702;11.364;2022-11-11T08:48:09;12.40;99.90
53599;DHT22;39485;45.702;11.364;2022-11-11T08:50:39;12.40;99.90
53599;DHT22;39485;45.702;11.364;2022-11-11T08:53:08;12.50;99.90
53599;DHT22;39485;45.702;11.364;2022-11-11T08:55:35;12.50;99.90
53599;DHT22;39485;45.702;11.364;2022-11-11T08:58:03;12.60;99.90
53599;DHT22;39485;45.702;11.364;2022-11-11T09:00:30;12.70;99.90
53599;DHT22;39485;45.702;11.364;2022-11-11T09:03:03;12.80;99.90
53599;DHT22;39485;45.702;11.364;2022-11-11T09:05:29;12.90;99.90
53599;DHT22;39485;45.702;11.364;2022-11-11T09:07:55;12.90;99.90
53599;DHT22;39485;45.702;11.364;2022-11-11T09:10:21;13.00;99.90
53599;DHT22;39485;45.702;11.364;2022-11-11T09:12:47;13.10;99.90
53599;DHT22;39485;45.702;11.364;2022-11-11T09:15:13;13.10;99.90
53599;DHT22;39485;45.702;11.364;2022-11-11T09:17:38;13.20;99.90
53599;DHT22;39485;45.702;11.364;2022-11-11T09:23:37;13.40;99.90
53599;DHT22;39485;45.702;11.364;2022-11-11T09:26:06;13.50;99.90
53599;DHT22;39485;45.702;11.364;2022-11-11T09:28:31;13.50;99.90
53599;DHT22;39485;45.702;11.364;2022-11-11T09:31:01;13.60;99.90
53599;DHT22;39485;45.702;11.364;2022-11-11T09:33:27;13.60;99.90
53599;DHT22;39485;45.702;11.364;2022-11-11T09:35:53;13.70;99.90
53599;DHT22;39485;45.702;11.364;2022-11-11T09:38:19;13.80;99.90
53599;DHT22;39485;45.702;11.364;2022-11-11T09:40:52;13.80;99.90
53599;DHT22;39485;45.702;11.364;2022-11-11T09:43:41;13.80;99.90
53599;DHT22;39485;45.702;11.364;2022-11-11T09:51:23;14.00;99.90
53599;DHT22;39485;45.702;11.364;2022-11-11T09:53:56;14.10;99.90
53599;DHT22;39485;45.702;11.364;2022-11-11T09:56:25;14.10;99.90
53599;DHT22;39485;45.702;11.364;2022-11-11T09:59:08;14.10;99.90
53599;DHT22;39485;45.702;11.364;2022-11-11T10:01:41;14.20;99.90
53599;DHT22;39485;45.702;11.364;2022-11-11T10:07:34;14.20;99.90
53599;DHT22;39485;45.702;11.364;2022-11-11T10:10:26;14.30;99.90
53599;DHT22;39485;45.702;11.364;2022-11-11T10:12:57;14.30;99.90
53599;DHT22;39485;45.702;11.364;2022-11-11T10:15:27;14.40;99.90
53599;DHT22;39485;45.702;11.364;2022-11-11T10:20:37;14.50;99.90
53599;DHT22;39485;45.702;11.364;2022-11-11T10:23:19;14.60;99.90
53599;DHT22;39485;45.702;11.364;2022-11-11T10:25:56;14.70;99.90
53599;DHT22;39485;45.702;11.364;2022-11-11T10:28:27;14.70;99.90
53599;DHT22;39485;45.702;11.364;2022-11-11T10:30:55;14.80;99.90
53599;DHT22;39485;45.702;11.364;2022-11-11T10:33:40;14.90;99.90
53599;DHT22;39485;45.702;11.364;2022-11-11T10:36:15;15.00;99.90
53599;DHT22;39485;45.702;11.364;2022-11-11T10:39:03;15.00;99.90
53599;DHT22;39485;45.702;11.364;2022-11-11T10:41:33;15.10;99.90
53599;DHT22;39485;45.702;11.364;2022-11-11T10:44:24;15.10;99.90
53599;DHT22;39485;45.702;11.364;2022-11-11T10:47:02;15.20;99.90
53599;DHT22;39485;45.702;11.364;2022-11-11T10:49:32;15.30;99.90
53599;DHT22;39485;45.702;11.364;2022-11-11T10:52:26;15.30;99.90
53599;DHT22;39485;45.702;11.364;2022-11-11T10:55:06;15.30;99.90
53599;DHT22;39485;45.702;11.364;2022-11-11T10:57:49;15.30;99.90
53599;DHT22;39485;45.702;11.364;2022-11-11T11:00:17;15.40;99.90
53599;DHT22;39485;45.702;11.364;2022-11-11T11:05:36;15.40;99.90
53599;DHT22;39485;45.702;11.364;2022-11-11T11:08:11;15.50;99.90
53599;DHT22;39485;45.702;11.364;2022-11-11T11:10:52;15.40;99.90
53599;DHT22;39485;45.702;11.364;2022-11-11T11:16:27;15.50;99.90
53599;DHT22;39485;45.702;11.364;2022-11-11T11:24:21;15.40;99.90
53599;DHT22;39485;45.702;11.364;2022-11-11T11:26:50;15.40;99.90
53599;DHT22;39485;45.702;11.364;2022-11-11T11:31:52;15.30;99.90
53599;DHT22;39485;45.702;11.364;2022-11-11T11:34:18;15.30;99.90
53599;DHT22;39485;45.702;11.364;2022-11-11T11:36:43;15.30;99.90
53599;DHT22;39485;45.702;11.364;2022-11-11T11:39:36;15.30;99.90
53599;DHT22;39485;45.702;11.364;2022-11-11T11:42:02;15.30;99.90
53599;DHT22;39485;45.702;11.364;2022-11-11T11:55:18;15.40;99.90
53599;DHT22;39485;45.702;11.364;2022-11-11T12:13:42;15.60;99.90
53599;DHT22;39485;45.702;11.364;2022-11-11T12:24:28;15.70;99.90
53599;DHT22;39485;45.702;11.364;2022-11-11T12:35:19;15.80;99.90
53599;DHT22;39485;45.702;11.364;2022-11-11T12:38:08;15.80;99.90
53599;DHT22;39485;45.702;11.364;2022-11-11T12:44:03;15.90;99.90
53599;DHT22;39485;45.702;11.364;2022-11-11T12:57:30;16.00;99.90
53599;DHT22;39485;45.702;11.364;2022-11-11T13:15:40;16.00;99.90
53599;DHT22;39485;45.702;11.364;2022-11-11T13:18:13;16.10;99.90
53599;DHT22;39485;45.702;11.364;2022-11-11T13:21:09;16.00;99.90
53599;DHT22;39485;45.702;11.364;2022-11-11T13:23:36;16.00;99.90
53599;DHT22;39485;45.702;11.364;2022-11-11T13:26:03;16.00;99.90
53599;DHT22;39485;45.702;11.364;2022-11-11T13:34:05;16.10;99.90
53599;DHT22;39485;45.702;11.364;2022-11-11T13:36:47;16.10;99.90
53599;DHT22;39485;45.702;11.364;2022-11-11T13:39:52;16.20;99.90
53599;DHT22;39485;45.702;11.364;2022-11-11T13:42:25;16.20;99.90
53599;DHT22;39485;45.702;11.364;2022-11-11T13:44:55;16.30;99.90
53599;DHT22;39485;45.702;11.364;2022-11-11T13:47:51;16.20;99.90
53599;DHT22;39485;45.702;11.364;2022-11-11T13:50:29;16.20;99.90
53599;DHT22;39485;45.702;11.364;2022-11-11T13:53:11;16.20;99.90
53599;DHT22;39485;45.702;11.364;2022-11-11T13:55:40;16.20;99.90
53599;DHT22;39485;45.702;11.364;2022-11-11T13:58:21;16.20;99.90
53599;DHT22;39485;45.702;11.364;2022-11-11T14:01:02;16.20;99.90
53599;DHT22;39485;45.702;11.364;2022-11-11T14:03:31;16.20;99.90
53599;DHT22;39485;45.702;11.364;2022-11-11T14:13:58;16.00;99.90
53599;DHT22;39485;45.702;11.364;2022-11-11T14:21:48;15.90;99.90
53599;DHT22;39485;45.702;11.364;2022-11-11T14:24:22;15.80;99.90
53599;DHT22;39485;45.702;11.364;2022-11-11T14:27:00;15.80;99.90
53599;DHT22;39485;45.702;11.364;2022-11-11T14:29:32;15.80;99.90
53599;DHT22;39485;45.702;11.364;2022-11-11T14:35:14;15.70;99.90
53599;DHT22;39485;45.702;11.364;2022-11-11T14:37:56;15.70;99.90
53599;DHT22;39485;45.702;11.364;2022-11-11T14:40:28;15.70;99.90
53599;DHT22;39485;45.702;11.364;2022-11-11T14:42:55;15.70;99.90
53599;DHT22;39485;45.702;11.364;2022-11-11T14:47:56;15.70;99.90
53599;DHT22;39485;45.702;11.364;2022-11-11T14:53:16;15.60;99.90
53599;DHT22;39485;45.702;11.364;2022-11-11T14:55:50;15.60;99.90
53599;DHT22;39485;45.702;11.364;2022-11-11T14:58:19;15.60;99.90
53599;DHT22;39485;45.702;11.364;2022-11-11T15:00:59;15.50;99.90
53599;DHT22;39485;45.702;11.364;2022-11-11T15:03:39;15.50;99.90
53599;DHT22;39485;45.702;11.364;2022-11-11T15:06:23;15.50;99.90
53599;DHT22;39485;45.702;11.364;2022-11-11T15:09:13;15.40;99.90
53599;DHT22;39485;45.702;11.364;2022-11-11T15:12:07;15.40;99.90
53599;DHT22;39485;45.702;11.364;2022-11-11T15:17:41;15.20;99.90
53599;DHT22;39485;45.702;11.364;2022-11-11T15:28:35;15.00;99.90
53599;DHT22;39485;45.702;11.364;2022-11-11T15:36:33;14.70;99.90
53599;DHT22;39485;45.702;11.364;2022-11-11T15:39:05;14.60;99.90
53599;DHT22;39485;45.702;11.364;2022-11-11T15:41:35;14.50;99.90
53599;DHT22;39485;45.702;11.364;2022-11-11T15:44:28;14.40;99.90
53599;DHT22;39485;45.702;11.364;2022-11-11T15:46:53;14.40;99.90
53599;DHT22;39485;45.702;11.364;2022-11-11T15:49:42;14.30;99.90
53599;DHT22;39485;45.702;11.364;2022-11-11T15:52:29;14.20;99.90
53599;DHT22;39485;45.702;11.364;2022-11-11T15:54:56;14.10;99.90
53599;DHT22;39485;45.702;11.364;2022-11-11T15:57:27;14.00;99.90
53599;DHT22;39485;45.702;11.364;2022-11-11T15:59:55;14.00;99.90
53599;DHT22;39485;45.702;11.364;2022-11-11T16:02:34;13.90;99.90
53599;DHT22;39485;45.702;11.364;2022-11-11T16:05:03;13.80;99.90
53599;DHT22;39485;45.702;11.364;2022-11-11T16:07:35;13.80;99.90
53599;DHT22;39485;45.702;11.364;2022-11-11T16:10:34;13.70;99.90
53599;DHT22;39485;45.702;11.364;2022-11-11T16:13:11;13.60;99.90
53599;DHT22;39485;45.702;11.364;2022-11-11T16:15:40;13.60;99.90
53599;DHT22;39485;45.702;11.364;2022-11-11T16:18:14;13.50;99.90
53599;DHT22;39485;45.702;11.364;2022-11-11T16:23:18;13.40;99.90
53599;DHT22;39485;45.702;11.364;2022-11-11T16:25:45;13.30;99.90
53599;DHT22;39485;45.702;11.364;2022-11-11T16:28:12;13.30;99.90
53599;DHT22;39485;45.702;11.364;2022-11-11T16:30:38;13.20;99.90
53599;DHT22;39485;45.702;11.364;2022-11-11T16:33:15;13.20;99.90
53599;DHT22;39485;45.702;11.364;2022-11-11T16:35:42;13.10;99.90
53599;DHT22;39485;45.702;11.364;2022-11-11T16:38:08;13.10;99.90
53599;DHT22;39485;45.702;11.364;2022-11-11T16:40:39;13.10;99.90
53599;DHT22;39485;45.702;11.364;2022-11-11T16:46:03;12.90;99.90
53599;DHT22;39485;45.702;11.364;2022-11-11T16:51:00;12.90;99.90
53599;DHT22;39485;45.702;11.364;2022-11-11T16:53:31;12.90;99.90
53599;DHT22;39485;45.702;11.364;2022-11-11T16:55:59;12.90;99.90
53599;DHT22;39485;45.702;11.364;2022-11-11T16:58:26;12.80;99.90
53599;DHT22;39485;45.702;11.364;2022-11-11T17:01:00;12.80;99.90
53599;DHT22;39485;45.702;11.364;2022-11-11T17:03:26;12.80;99.90
53599;DHT22;39485;45.702;11.364;2022-11-11T17:06:06;12.80;99.90
53599;DHT22;39485;45.702;11.364;2022-11-11T17:08:38;12.70;99.90
53599;DHT22;39485;45.702;11.364;2022-11-11T17:11:07;12.70;99.90
53599;DHT22;39485;45.702;11.364;2022-11-11T17:13:33;12.70;99.90
53599;DHT22;39485;45.702;11.364;2022-11-11T17:16:02;12.60;99.90
53599;DHT22;39485;45.702;11.364;2022-11-11T17:18:36;12.60;99.90
53599;DHT22;39485;45.702;11.364;2022-11-11T17:21:02;12.60;99.90
53599;DHT22;39485;45.702;11.364;2022-11-11T17:23:28;12.60;99.90
53599;DHT22;39485;45.702;11.364;2022-11-11T17:25:57;12.50;99.90
53599;DHT22;39485;45.702;11.364;2022-11-11T17:28:30;12.50;99.90
53599;DHT22;39485;45.702;11.364;2022-11-11T17:30:56;12.40;99.90
53599;DHT22;39485;45.702;11.364;2022-11-11T17:33:25;12.40;99.90
53599;DHT22;39485;45.702;11.364;2022-11-11T17:35:53;12.40;99.90
53599;DHT22;39485;45.702;11.364;2022-11-11T17:38:19;12.30;99.90
53599;DHT22;39485;45.702;11.364;2022-11-11T17:40:46;12.30;99.90
53599;DHT22;39485;45.702;11.364;2022-11-11T17:43:12;12.30;99.90
53599;DHT22;39485;45.702;11.364;2022-11-11T17:45:40;12.20;99.90
53599;DHT22;39485;45.702;11.364;2022-11-11T17:48:07;12.20;99.90
53599;DHT22;39485;45.702;11.364;2022-11-11T17:50:34;12.20;99.90
53599;DHT22;39485;45.702;11.364;2022-11-11T17:53:00;12.10;99.90
53599;DHT22;39485;45.702;11.364;2022-11-11T17:55:27;12.10;99.90
53599;DHT22;39485;45.702;11.364;2022-11-11T17:57:53;12.10;99.90
53599;DHT22;39485;45.702;11.364;2022-11-11T18:00:19;12.10;99.90
53599;DHT22;39485;45.702;11.364;2022-11-11T18:02:44;12.00;99.90
53599;DHT22;39485;45.702;11.364;2022-11-11T18:05:10;12.10;99.90
53599;DHT22;39485;45.702;11.364;2022-11-11T18:07:36;12.00;99.90
53599;DHT22;39485;45.702;11.364;2022-11-11T18:10:02;12.00;99.90
53599;DHT22;39485;45.702;11.364;2022-11-11T18:12:28;12.00;99.90
53599;DHT22;39485;45.702;11.364;2022-11-11T18:14:54;12.00;99.90
53599;DHT22;39485;45.702;11.364;2022-11-11T18:17:19;12.00;99.90
53599;DHT22;39485;45.702;11.364;2022-11-11T18:19:45;12.00;99.90
53599;DHT22;39485;45.702;11.364;2022-11-11T18:22:11;12.00;99.90
53599;DHT22;39485;45.702;11.364;2022-11-11T18:24:37;11.90;99.90
53599;DHT22;39485;45.702;11.364;2022-11-11T18:27:02;12.00;99.90
53599;DHT22;39485;45.702;11.364;2022-11-11T18:29:28;11.90;99.90
53599;DHT22;39485;45.702;11.364;2022-11-11T18:31:55;11.90;99.90
53599;DHT22;39485;45.702;11.364;2022-11-11T18:34:21;11.80;99.90
53599;DHT22;39485;45.702;11.364;2022-11-11T18:36:46;11.90;99.90
53599;DHT22;39485;45.702;11.364;2022-11-11T18:39:12;11.90;99.90
53599;DHT22;39485;45.702;11.364;2022-11-11T18:41:38;11.80;99.90
53599;DHT22;39485;45.702;11.364;2022-11-11T18:44:03;11.80;99.90
53599;DHT22;39485;45.702;11.364;2022-11-11T18:46:29;11.80;99.90
53599;DHT22;39485;45.702;11.364;2022-11-11T18:48:57;11.80;99.90
53599;DHT22;39485;45.702;11.364;2022-11-11T18:51:23;11.70;99.90
53599;DHT22;39485;45.702;11.364;2022-11-11T18:53:50;11.70;99.90
53599;DHT22;39485;45.702;11.364;2022-11-11T18:56:20;11.60;99.90
53599;DHT22;39485;45.702;11.364;2022-11-11T18:58:49;11.60;99.90
53599;DHT22;39485;45.702;11.364;2022-11-11T19:01:17;11.60;99.90
53599;DHT22;39485;45.702;11.364;2022-11-11T19:03:49;11.50;99.90
53599;DHT22;39485;45.702;11.364;2022-11-11T19:06:16;11.50;99.90
53599;DHT22;39485;45.702;11.364;2022-11-11T19:08:42;11.40;99.90
53599;DHT22;39485;45.702;11.364;2022-11-11T19:11:08;11.40;99.90
53599;DHT22;39485;45.702;11.364;2022-11-11T19:13:35;11.40;99.90
53599;DHT22;39485;45.702;11.364;2022-11-11T19:16:06;11.40;99.90
53599;DHT22;39485;45.702;11.364;2022-11-11T19:18:32;11.30;99.90
53599;DHT22;39485;45.702;11.364;2022-11-11T19:20:57;11.30;99.90
53599;DHT22;39485;45.702;11.364;2022-11-11T19:23:23;11.20;99.90
53599;DHT22;39485;45.702;11.364;2022-11-11T19:25:49;11.20;99.90
53599;DHT22;39485;45.702;11.364;2022-11-11T19:28:14;11.20;99.90
53599;DHT22;39485;45.702;11.364;2022-11-11T19:30:40;11.20;99.90
53599;DHT22;39485;45.702;11.364;2022-11-11T19:33:06;11.10;99.90
53599;DHT22;39485;45.702;11.364;2022-11-11T19:35:32;11.10;99.90
53599;DHT22;39485;45.702;11.364;2022-11-11T19:37:58;11.10;99.90
53599;DHT22;39485;45.702;11.364;2022-11-11T19:40:23;11.00;99.90
53599;DHT22;39485;45.702;11.364;2022-11-11T19:42:49;11.00;99.90
53599;DHT22;39485;45.702;11.364;2022-11-11T19:45:15;11.00;99.90
53599;DHT22;39485;45.702;11.364;2022-11-11T19:47:41;11.00;99.90
53599;DHT22;39485;45.702;11.364;2022-11-11T19:50:07;11.00;99.90
53599;DHT22;39485;45.702;11.364;2022-11-11T19:52:33;11.00;99.90
53599;DHT22;39485;45.702;11.364;2022-11-11T19:54:58;11.00;99.90
53599;DHT22;39485;45.702;11.364;2022-11-11T19:57:24;11.00;99.90
53599;DHT22;39485;45.702;11.364;2022-11-11T19:59:50;11.00;99.90
53599;DHT22;39485;45.702;11.364;2022-11-11T20:02:17;10.90;99.90
53599;DHT22;39485;45.702;11.364;2022-11-11T20:04:42;10.90;99.90
53599;DHT22;39485;45.702;11.364;2022-11-11T20:07:08;10.90;99.90
53599;DHT22;39485;45.702;11.364;2022-11-11T20:09:35;10.80;99.90
53599;DHT22;39485;45.702;11.364;2022-11-11T20:12:00;10.80;99.90
53599;DHT22;39485;45.702;11.364;2022-11-11T20:14:26;10.70;99.90